sensor_id;sensor_type;location;lat;lon;timestamp;P1;durP1;ratioP1;P2;durP2;ratioP2
27863;SDS011;15980;51.092;13.916;2023-04-09T00:00:20;54.03;;;21.92;;
27863;SDS011;15980;51.092;13.916;2023-04-09T00:10:21;64.15;;;20.42;;
27863;SDS011;15980;51.092;13.916;2023-04-09T00:20:21;57.50;;;22.98;;
27863;SDS011;15980;51.092;13.916;2023-04-09T00:30:22;68.50;;;23.85;;
27863;SDS011;15980;51.092;13.916;2023-04-09T00:40:22;60.55;;;23.60;;
27863;SDS011;15980;51.092;13.916;2023-04-09T00:50:22;62.80;;;23.08;;
27863;SDS011;15980;51.092;13.916;2023-04-09T01:00:23;60.78;;;23.33;;
27863;SDS011;15980;51.092;13.916;2023-04-09T01:10:27;53.65;;;22.38;;
27863;SDS011;15980;51.092;13.916;2023-04-09T01:20:29;53.88;;;22.13;;
27863;SDS011;15980;51.092;13.916;2023-04-09T01:30:34;52.38;;;22.13;;
27863;SDS011;15980;51.092;13.916;2023-04-09T01:40:35;49.88;;;21.67;;
27863;SDS011;15980;51.092;13.916;2023-04-09T01:50:35;55.08;;;22.65;;
27863;SDS011;15980;51.092;13.916;2023-04-09T02:00:42;53.83;;;21.88;;
27863;SDS011;15980;51.092;13.916;2023-04-09T02:10:48;52.40;;;22.02;;
27863;SDS011;15980;51.092;13.916;2023-04-09T02:20:53;51.35;;;20.90;;
27863;SDS011;15980;51.092;13.916;2023-04-09T02:30:54;60.83;;;23.67;;
27863;SDS011;15980;51.092;13.916;2023-04-09T02:40:55;59.85;;;23.63;;
27863;SDS011;15980;51.092;13.916;2023-04-09T02:50:55;61.33;;;23.15;;
27863;SDS011;15980;51.092;13.916;2023-04-09T03:00:55;57.53;;;23.02;;
27863;SDS011;15980;51.092;13.916;2023-04-09T03:10:56;61.28;;;24.70;;
27863;SDS011;15980;51.092;13.916;2023-04-09T03:20:56;66.10;;;26.20;;
27863;SDS011;15980;51.092;13.916;2023-04-09T03:30:56;67.63;;;26.50;;
27863;SDS011;15980;51.092;13.916;2023-04-09T03:40:57;65.40;;;26.10;;
27863;SDS011;15980;51.092;13.916;2023-04-09T03:50:57;70.75;;;25.80;;
27863;SDS011;15980;51.092;13.916;2023-04-09T04:00:57;63.97;;;26.23;;
27863;SDS011;15980;51.092;13.916;2023-04-09T04:11:04;63.30;;;25.85;;
27863;SDS011;15980;51.092;13.916;2023-04-09T04:21:04;62.20;;;25.02;;
27863;SDS011;15980;51.092;13.916;2023-04-09T04:31:08;57.72;;;22.42;;
27863;SDS011;15980;51.092;13.916;2023-04-09T04:41:10;55.28;;;23.02;;
27863;SDS011;15980;51.092;13.916;2023-04-09T04:51:10;60.63;;;24.85;;
27863;SDS011;15980;51.092;13.916;2023-04-09T05:01:10;57.95;;;24.02;;
27863;SDS011;15980;51.092;13.916;2023-04-09T05:11:11;64.20;;;26.60;;
27863;SDS011;15980;51.092;13.916;2023-04-09T05:21:12;67.88;;;26.85;;
27863;SDS011;15980;51.092;13.916;2023-04-09T05:31:12;58.10;;;25.45;;
27863;SDS011;15980;51.092;13.916;2023-04-09T05:41:12;61.30;;;25.00;;
27863;SDS011;15980;51.092;13.916;2023-04-09T05:51:13;53.47;;;24.42;;
27863;SDS011;15980;51.092;13.916;2023-04-09T06:01:13;74.90;;;33.80;;
27863;SDS011;15980;51.092;13.916;2023-04-09T06:11:14;80.78;;;37.13;;
27863;SDS011;15980;51.092;13.916;2023-04-09T06:21:15;73.13;;;31.90;;
27863;SDS011;15980;51.092;13.916;2023-04-09T06:31:15;70.57;;;30.80;;
27863;SDS011;15980;51.092;13.916;2023-04-09T06:41:16;62.45;;;28.05;;
27863;SDS011;15980;51.092;13.916;2023-04-09T06:51:19;62.50;;;26.75;;
27863;SDS011;15980;51.092;13.916;2023-04-09T07:01:20;55.05;;;24.40;;
27863;SDS011;15980;51.092;13.916;2023-04-09T07:11:20;46.55;;;22.73;;
27863;SDS011;15980;51.092;13.916;2023-04-09T07:21:20;55.13;;;25.90;;
27863;SDS011;15980;51.092;13.916;2023-04-09T07:31:21;56.92;;;25.13;;
27863;SDS011;15980;51.092;13.916;2023-04-09T07:41:21;56.95;;;25.73;;
27863;SDS011;15980;51.092;13.916;2023-04-09T07:51:21;55.75;;;25.30;;
27863;SDS011;15980;51.092;13.916;2023-04-09T08:01:21;52.00;;;23.42;;
27863;SDS011;15980;51.092;13.916;2023-04-09T08:11:22;58.33;;;25.17;;
27863;SDS011;15980;51.092;13.916;2023-04-09T08:21:22;50.65;;;25.23;;
27863;SDS011;15980;51.092;13.916;2023-04-09T08:31:22;52.00;;;25.38;;
27863;SDS011;15980;51.092;13.916;2023-04-09T08:41:23;49.40;;;25.50;;
27863;SDS011;15980;51.092;13.916;2023-04-09T08:51:25;51.80;;;26.23;;
27863;SDS011;15980;51.092;13.916;2023-04-09T09:11:29;49.10;;;25.92;;
27863;SDS011;15980;51.092;13.916;2023-04-09T09:21:29;49.13;;;26.63;;
27863;SDS011;15980;51.092;13.916;2023-04-09T09:31:30;40.53;;;22.42;;
27863;SDS011;15980;51.092;13.916;2023-04-09T09:41:44;42.08;;;24.20;;
27863;SDS011;15980;51.092;13.916;2023-04-09T09:51:45;38.00;;;23.30;;
27863;SDS011;15980;51.092;13.916;2023-04-09T10:01:46;35.03;;;20.63;;
27863;SDS011;15980;51.092;13.916;2023-04-09T10:11:48;38.67;;;21.30;;
27863;SDS011;15980;51.092;13.916;2023-04-09T10:21:50;35.08;;;20.67;;
27863;SDS011;15980;51.092;13.916;2023-04-09T10:32:03;32.40;;;19.70;;
27863;SDS011;15980;51.092;13.916;2023-04-09T10:42:06;32.92;;;19.98;;
27863;SDS011;15980;51.092;13.916;2023-04-09T10:52:10;35.75;;;21.42;;
27863;SDS011;15980;51.092;13.916;2023-04-09T11:12:39;33.28;;;19.40;;
27863;SDS011;15980;51.092;13.916;2023-04-09T11:22:39;34.70;;;20.17;;
27863;SDS011;15980;51.092;13.916;2023-04-09T11:32:40;33.03;;;20.05;;
27863;SDS011;15980;51.092;13.916;2023-04-09T11:42:40;29.77;;;18.25;;
27863;SDS011;15980;51.092;13.916;2023-04-09T11:52:40;36.35;;;20.88;;
27863;SDS011;15980;51.092;13.916;2023-04-09T12:02:43;30.45;;;17.58;;
27863;SDS011;15980;51.092;13.916;2023-04-09T12:12:45;24.80;;;14.05;;
27863;SDS011;15980;51.092;13.916;2023-04-09T12:22:46;31.33;;;17.30;;
27863;SDS011;15980;51.092;13.916;2023-04-09T12:32:47;28.10;;;16.42;;
27863;SDS011;15980;51.092;13.916;2023-04-09T12:42:47;26.70;;;16.67;;
27863;SDS011;15980;51.092;13.916;2023-04-09T12:52:48;27.42;;;16.13;;
27863;SDS011;15980;51.092;13.916;2023-04-09T13:02:48;27.08;;;15.98;;
27863;SDS011;15980;51.092;13.916;2023-04-09T13:12:48;23.98;;;15.00;;
27863;SDS011;15980;51.092;13.916;2023-04-09T13:22:48;23.10;;;13.05;;
27863;SDS011;15980;51.092;13.916;2023-04-09T13:32:49;17.70;;;11.07;;
27863;SDS011;15980;51.092;13.916;2023-04-09T13:42:49;21.58;;;12.73;;
27863;SDS011;15980;51.092;13.916;2023-04-09T13:52:49;21.85;;;14.27;;
27863;SDS011;15980;51.092;13.916;2023-04-09T14:02:49;27.27;;;15.93;;
27863;SDS011;15980;51.092;13.916;2023-04-09T14:12:50;28.65;;;16.45;;
27863;SDS011;15980;51.092;13.916;2023-04-09T14:22:50;21.10;;;13.18;;
27863;SDS011;15980;51.092;13.916;2023-04-09T14:32:50;23.27;;;13.75;;
27863;SDS011;15980;51.092;13.916;2023-04-09T14:42:51;19.55;;;12.20;;
27863;SDS011;15980;51.092;13.916;2023-04-09T14:52:51;18.83;;;10.55;;
27863;SDS011;15980;51.092;13.916;2023-04-09T15:02:51;16.15;;;9.20;;
27863;SDS011;15980;51.092;13.916;2023-04-09T15:12:52;17.75;;;10.68;;
27863;SDS011;15980;51.092;13.916;2023-04-09T15:22:52;22.27;;;13.25;;
27863;SDS011;15980;51.092;13.916;2023-04-09T15:32:52;20.17;;;12.48;;
27863;SDS011;15980;51.092;13.916;2023-04-09T15:42:53;23.25;;;12.63;;
27863;SDS011;15980;51.092;13.916;2023-04-09T15:52:53;23.80;;;14.00;;
27863;SDS011;15980;51.092;13.916;2023-04-09T16:02:53;24.58;;;14.48;;
27863;SDS011;15980;51.092;13.916;2023-04-09T16:12:54;21.23;;;13.02;;
27863;SDS011;15980;51.092;13.916;2023-04-09T16:22:54;19.85;;;11.63;;
27863;SDS011;15980;51.092;13.916;2023-04-09T16:32:54;20.67;;;12.05;;
27863;SDS011;15980;51.092;13.916;2023-04-09T16:42:55;25.75;;;14.57;;
27863;SDS011;15980;51.092;13.916;2023-04-09T16:52:55;23.20;;;14.15;;
27863;SDS011;15980;51.092;13.916;2023-04-09T17:02:55;20.17;;;11.60;;
27863;SDS011;15980;51.092;13.916;2023-04-09T17:12:55;22.05;;;12.18;;
27863;SDS011;15980;51.092;13.916;2023-04-09T17:22:56;23.63;;;12.93;;
27863;SDS011;15980;51.092;13.916;2023-04-09T17:32:56;24.48;;;13.13;;
27863;SDS011;15980;51.092;13.916;2023-04-09T17:42:56;25.17;;;13.77;;
27863;SDS011;15980;51.092;13.916;2023-04-09T17:52:57;34.13;;;17.83;;
27863;SDS011;15980;51.092;13.916;2023-04-09T18:02:57;37.22;;;20.13;;
27863;SDS011;15980;51.092;13.916;2023-04-09T18:12:57;35.97;;;18.63;;
27863;SDS011;15980;51.092;13.916;2023-04-09T18:22:57;28.20;;;15.15;;
27863;SDS011;15980;51.092;13.916;2023-04-09T18:32:58;25.23;;;13.93;;
27863;SDS011;15980;51.092;13.916;2023-04-09T18:42:58;23.92;;;13.27;;
27863;SDS011;15980;51.092;13.916;2023-04-09T18:52:58;23.95;;;13.70;;
27863;SDS011;15980;51.092;13.916;2023-04-09T19:02:59;27.13;;;14.43;;
27863;SDS011;15980;51.092;13.916;2023-04-09T19:12:59;23.52;;;13.52;;
27863;SDS011;15980;51.092;13.916;2023-04-09T19:22:59;24.77;;;12.82;;
27863;SDS011;15980;51.092;13.916;2023-04-09T19:32:59;23.50;;;12.50;;
27863;SDS011;15980;51.092;13.916;2023-04-09T19:43:00;27.40;;;14.18;;
27863;SDS011;15980;51.092;13.916;2023-04-09T19:53:00;55.45;;;26.55;;
27863;SDS011;15980;51.092;13.916;2023-04-09T20:03:00;33.53;;;16.42;;
27863;SDS011;15980;51.092;13.916;2023-04-09T20:13:01;31.48;;;15.57;;
27863;SDS011;15980;51.092;13.916;2023-04-09T20:23:01;32.42;;;16.25;;
27863;SDS011;15980;51.092;13.916;2023-04-09T20:33:01;34.72;;;17.15;;
27863;SDS011;15980;51.092;13.916;2023-04-09T20:43:02;33.22;;;15.57;;
27863;SDS011;15980;51.092;13.916;2023-04-09T20:53:02;31.95;;;15.60;;
27863;SDS011;15980;51.092;13.916;2023-04-09T21:03:03;33.20;;;16.42;;
27863;SDS011;15980;51.092;13.916;2023-04-09T21:13:03;41.13;;;21.10;;
27863;SDS011;15980;51.092;13.916;2023-04-09T21:23:03;44.97;;;22.75;;
27863;SDS011;15980;51.092;13.916;2023-04-09T21:33:07;34.00;;;17.35;;
27863;SDS011;15980;51.092;13.916;2023-04-09T21:43:08;39.22;;;19.05;;
27863;SDS011;15980;51.092;13.916;2023-04-09T21:53:08;36.15;;;18.27;;
27863;SDS011;15980;51.092;13.916;2023-04-09T22:03:08;30.92;;;15.82;;
27863;SDS011;15980;51.092;13.916;2023-04-09T22:13:08;31.73;;;16.08;;
27863;SDS011;15980;51.092;13.916;2023-04-09T22:23:09;27.67;;;14.77;;
27863;SDS011;15980;51.092;13.916;2023-04-09T22:33:09;32.17;;;16.55;;
27863;SDS011;15980;51.092;13.916;2023-04-09T22:43:09;37.20;;;16.50;;
27863;SDS011;15980;51.092;13.916;2023-04-09T22:53:09;32.47;;;15.40;;
27863;SDS011;15980;51.092;13.916;2023-04-09T23:03:10;37.50;;;18.27;;
27863;SDS011;15980;51.092;13.916;2023-04-09T23:13:10;32.50;;;16.98;;
27863;SDS011;15980;51.092;13.916;2023-04-09T23:23:10;33.28;;;16.48;;
27863;SDS011;15980;51.092;13.916;2023-04-09T23:33:11;38.30;;;17.40;;
27863;SDS011;15980;51.092;13.916;2023-04-09T23:43:11;37.30;;;17.63;;
27863;SDS011;15980;51.092;13.916;2023-04-09T23:53:11;40.15;;;18.00;;
